Time;durP1;ratioP1;P1;durP2;ratioP2;P2;SDS_P1;SDS_P2;PMS_P1;PMS_P2;Temp;Humidity;BMP_temperature;BMP_pressure;BME280_temperature;BME280_humidity;BME280_pressure;Samples;Min_cycle;Max_cycle;Signal;HPM_P1;HPM_P2
2022/05/20 00:00:45;;;;;;;14.10;11.40;;;20.70;99.90;;;;;;5052666;28;20898;-72
2022/05/20 00:03:11;;;;;;;13.60;12.40;;;20.70;99.90;;;;;;5035148;28;20583;-72
2022/05/20 00:05:37;;;;;;;12.97;11.80;;;20.70;99.90;;;;;;5052225;28;20591;-72
2022/05/20 00:08:03;;;;;;;13.07;11.97;;;20.70;99.90;;;;;;5052694;28;20563;-72
2022/05/20 00:10:30;;;;;;;13.27;12.17;;;20.80;99.90;;;;;;5052199;28;20628;-72
2022/05/20 00:12:56;;;;;;;13.50;12.30;;;20.80;99.90;;;;;;5034775;28;20629;-72
2022/05/20 00:15:24;;;;;;;13.73;12.40;;;20.80;99.90;;;;;;5052098;28;20567;-72
2022/05/20 00:17:50;;;;;;;13.63;12.20;;;20.80;99.90;;;;;;5034732;28;20996;-72
2022/05/20 00:20:18;;;;;;;14.30;13.00;;;20.90;99.90;;;;;;5052151;28;20603;-72
2022/05/20 00:22:44;;;;;;;13.77;12.40;;;20.90;99.90;;;;;;5052527;28;20234;-72
2022/05/20 00:27:57;;;;;;;18.80;13.57;;;20.90;99.90;;;;;;5052240;28;20584;-72
2022/05/20 00:30:22;;;;;;;12.83;11.53;;;20.90;99.90;;;;;;5052087;28;20611;-72
2022/05/20 00:32:48;;;;;;;13.37;12.17;;;20.90;99.90;;;;;;5052235;28;20169;-72
2022/05/20 00:35:14;;;;;;;12.37;11.27;;;20.90;99.90;;;;;;5033973;28;20173;-72
2022/05/20 00:37:40;;;;;;;16.03;14.57;;;20.90;99.90;;;;;;5052290;28;20256;-72
2022/05/20 00:40:09;;;;;;;14.00;12.70;;;20.90;99.90;;;;;;5051721;28;20990;-72
2022/05/20 00:42:36;;;;;;;13.77;12.50;;;20.90;99.90;;;;;;5052166;28;20571;-72
2022/05/20 00:45:04;;;;;;;13.60;12.30;;;20.90;99.90;;;;;;5051635;28;20564;-72
2022/05/20 00:47:29;;;;;;;13.97;12.77;;;20.80;99.90;;;;;;5052127;28;20598;-72
2022/05/20 00:49:58;;;;;;;12.23;11.03;;;20.80;99.90;;;;;;5033833;28;20626;-72
2022/05/20 00:52:28;;;;;;;13.77;12.43;;;20.80;99.90;;;;;;5051956;28;20169;-72
2022/05/20 00:55:02;;;;;;;14.60;13.10;;;20.80;99.90;;;;;;5033473;28;20853;-72
2022/05/20 00:57:32;;;;;;;14.33;11.83;;;20.80;99.90;;;;;;5051873;28;20604;-72
2022/05/20 01:00:02;;;;;;;13.67;12.27;;;20.80;99.90;;;;;;5051648;28;20583;-72
2022/05/20 01:02:32;;;;;;;13.10;11.90;;;20.80;99.90;;;;;;5051824;28;20580;-72
2022/05/20 01:05:03;;;;;;;13.17;11.87;;;20.70;99.90;;;;;;5051369;28;20649;-72
2022/05/20 01:07:35;;;;;;;13.27;12.00;;;20.70;99.90;;;;;;5051947;28;20691;-72
2022/05/20 01:10:00;;;;;;;12.63;11.53;;;20.70;99.90;;;;;;5051144;28;21321;-72
2022/05/20 01:12:28;;;;;;;12.17;10.97;;;20.70;99.90;;;;;;5051693;28;20598;-72
2022/05/20 01:14:54;;;;;;;12.70;11.50;;;20.70;99.90;;;;;;5051150;28;20992;-72
2022/05/20 01:17:21;;;;;;;16.33;12.70;;;20.70;99.90;;;;;;5051684;28;20595;-72
2022/05/20 01:19:51;;;;;;;14.80;12.07;;;20.70;99.90;;;;;;5051196;28;20595;-72
2022/05/20 01:22:48;;;;;;;11.73;10.50;;;20.60;99.90;;;;;;5033752;28;20924;-72
2022/05/20 01:25:14;;;;;;;12.70;11.10;;;20.60;99.90;;;;;;5017125;28;20691;-72
2022/05/20 01:27:42;;;;;;;12.30;11.00;;;20.60;99.90;;;;;;5051298;28;20594;-72
2022/05/20 01:30:11;;;;;;;12.97;11.73;;;20.60;99.90;;;;;;5016955;28;20615;-73
2022/05/20 01:32:37;;;;;;;11.50;10.33;;;20.60;99.90;;;;;;5051592;28;21009;-73
2022/05/20 01:35:07;;;;;;;12.40;10.83;;;20.60;99.90;;;;;;5050916;28;21231;-73
2022/05/20 01:37:32;;;;;;;10.70;9.70;;;20.50;99.90;;;;;;5050270;28;20568;-73
2022/05/20 01:44:40;;;;;;;10.73;9.73;;;20.50;99.90;;;;;;5051308;28;20226;-73
2022/05/20 01:47:33;;;;;;;10.93;9.90;;;20.50;99.90;;;;;;5047871;28;20730;-73
2022/05/20 01:50:20;;;;;;;14.23;11.27;;;20.50;99.90;;;;;;5050317;28;20722;-73
2022/05/20 01:53:07;;;;;;;10.10;8.90;;;20.50;99.90;;;;;;5051010;28;20578;-72
2022/05/20 01:55:51;;;;;;;11.70;10.50;;;20.50;99.90;;;;;;5051069;28;20610;-73
2022/05/20 01:58:22;;;;;;;13.63;11.30;;;20.50;99.90;;;;;;5051170;28;20572;-73
2022/05/20 02:00:51;;;;;;;12.00;10.70;;;20.40;99.90;;;;;;5050509;28;20607;-73
2022/05/20 02:03:23;;;;;;;15.53;12.53;;;20.50;99.90;;;;;;5051025;28;20575;-73
2022/05/20 02:05:59;;;;;;;11.83;10.70;;;20.40;99.90;;;;;;5050821;28;20607;-73
2022/05/20 02:08:31;;;;;;;14.87;12.60;;;20.40;99.90;;;;;;5051211;28;20609;-73
2022/05/20 02:11:13;;;;;;;12.10;10.90;;;20.40;99.90;;;;;;5032131;28;20623;-73
2022/05/20 02:13:43;;;;;;;12.47;11.17;;;20.40;99.90;;;;;;5051034;28;20678;-73
2022/05/20 02:16:17;;;;;;;14.03;12.30;;;20.40;99.90;;;;;;5051085;28;20599;-73
2022/05/20 02:18:56;;;;;;;12.90;10.43;;;20.40;99.90;;;;;;5051055;28;20645;-73
2022/05/20 02:21:25;;;;;;;12.47;11.20;;;20.40;99.90;;;;;;5049723;28;20606;-73
2022/05/20 02:23:55;;;;;;;13.13;11.93;;;20.40;99.90;;;;;;5050961;28;21130;-73
2022/05/20 02:26:25;;;;;;;14.90;11.50;;;20.40;99.90;;;;;;5051015;28;20676;-73
2022/05/20 02:28:56;;;;;;;11.80;10.70;;;20.40;99.90;;;;;;5050698;28;20587;-73
2022/05/20 02:31:34;;;;;;;13.57;12.23;;;20.40;99.90;;;;;;5050171;28;20714;-73
2022/05/20 02:34:00;;;;;;;13.30;11.73;;;20.40;99.90;;;;;;5050799;28;21169;-73
2022/05/20 02:36:32;;;;;;;15.07;13.50;;;20.40;99.90;;;;;;5050707;28;20595;-73
2022/05/20 02:38:58;;;;;;;14.20;12.70;;;20.40;99.90;;;;;;5050859;28;20655;-72
2022/05/20 02:41:25;;;;;;;13.87;12.47;;;20.40;99.90;;;;;;5050096;28;20577;-73
2022/05/20 02:43:51;;;;;;;18.07;12.87;;;20.40;99.90;;;;;;5033019;28;20608;-73
2022/05/20 02:46:16;;;;;;;16.07;13.03;;;20.40;99.90;;;;;;5050614;28;21229;-73
2022/05/20 02:48:42;;;;;;;12.63;11.40;;;20.40;99.90;;;;;;5051965;28;20658;-72
2022/05/20 02:51:08;;;;;;;14.00;12.53;;;20.40;99.90;;;;;;5053293;28;20243;-73
2022/05/20 02:53:34;;;;;;;17.57;15.77;;;20.40;99.90;;;;;;5054328;28;20161;-73
2022/05/20 02:56:00;;;;;;;13.83;12.53;;;20.40;99.90;;;;;;5054321;28;20195;-73
2022/05/20 03:04:10;;;;;;;17.63;15.93;;;20.30;99.90;;;;;;5035901;28;20560;-75
2022/05/20 03:06:42;;;;;;;15.03;13.77;;;20.30;99.90;;;;;;5054054;28;20606;-74
2022/05/20 03:09:09;;;;;;;18.13;16.00;;;20.30;99.90;;;;;;5053556;28;20661;-74
2022/05/20 03:11:35;;;;;;;19.33;17.43;;;20.30;99.90;;;;;;5053434;28;20629;-74
2022/05/20 03:14:03;;;;;;;17.67;15.87;;;20.30;99.90;;;;;;5054031;28;20564;-74
2022/05/20 03:16:30;;;;;;;16.87;15.17;;;20.30;99.90;;;;;;5053715;28;20545;-74
2022/05/20 03:18:56;;;;;;;17.10;15.50;;;20.30;99.90;;;;;;5053534;28;20918;-74
2022/05/20 03:21:21;;;;;;;15.40;13.90;;;20.30;99.90;;;;;;5035126;28;20590;-74
2022/05/20 03:23:47;;;;;;;18.17;16.37;;;20.30;99.90;;;;;;5053816;28;20559;-74
2022/05/20 03:26:15;;;;;;;16.13;14.53;;;20.20;99.90;;;;;;5035615;28;20681;-74
2022/05/20 03:28:42;;;;;;;18.60;16.80;;;20.20;99.90;;;;;;5035835;28;20570;-74
2022/05/20 03:31:10;;;;;;;20.87;18.77;;;20.20;99.90;;;;;;5052486;28;20714;-74
2022/05/20 03:33:37;;;;;;;18.60;16.80;;;20.20;99.90;;;;;;5035677;28;20577;-75
2022/05/20 03:36:04;;;;;;;18.10;16.37;;;20.20;99.90;;;;;;5019094;28;20591;-74
2022/05/20 03:38:30;;;;;;;19.60;17.53;;;20.20;99.90;;;;;;5053360;28;20564;-74
2022/05/20 03:40:56;;;;;;;19.63;17.77;;;20.20;99.90;;;;;;5052500;28;20558;-74
2022/05/20 03:43:23;;;;;;;19.27;17.40;;;20.20;99.90;;;;;;5053458;28;20660;-74
2022/05/20 03:45:51;;;;;;;18.47;16.70;;;20.20;99.90;;;;;;5053299;28;20733;-74
2022/05/20 03:48:16;;;;;;;20.27;18.27;;;20.20;99.90;;;;;;5053021;28;20925;-74
2022/05/20 03:50:42;;;;;;;19.43;17.53;;;20.20;99.90;;;;;;5052393;28;20614;-74
2022/05/20 03:53:08;;;;;;;21.70;19.23;;;20.20;99.90;;;;;;5035344;28;20723;-74
2022/05/20 03:55:33;;;;;;;20.40;18.33;;;20.20;99.90;;;;;;5035032;28;20685;-74
2022/05/20 03:57:59;;;;;;;21.50;19.47;;;20.20;99.90;;;;;;5052934;28;20157;-74
2022/05/20 04:00:25;;;;;;;18.43;16.47;;;20.20;99.90;;;;;;5051255;28;20173;-74
2022/05/20 04:02:50;;;;;;;20.50;18.50;;;20.10;99.90;;;;;;5052731;28;20176;-75
2022/05/20 04:05:16;;;;;;;22.40;20.27;;;20.10;99.90;;;;;;5052753;28;20219;-74
2022/05/20 04:07:42;;;;;;;22.97;20.00;;;20.10;99.90;;;;;;5052793;28;20245;-74
2022/05/20 04:10:09;;;;;;;22.03;19.60;;;20.20;99.90;;;;;;5051597;28;21052;-74
2022/05/20 04:12:43;;;;;;;20.90;18.80;;;20.10;99.90;;;;;;5034892;28;20569;-74
2022/05/20 04:15:12;;;;;;;22.87;20.63;;;20.10;99.90;;;;;;5034569;28;20571;-73
2022/05/20 04:17:39;;;;;;;22.10;19.90;;;20.10;99.90;;;;;;5034514;28;20595;-73
2022/05/20 04:20:06;;;;;;;20.90;18.90;;;20.10;99.90;;;;;;5051743;28;20650;-74
2022/05/20 04:22:35;;;;;;;20.50;18.53;;;20.20;99.90;;;;;;5034478;28;20625;-74
2022/05/20 04:25:01;;;;;;;22.80;20.43;;;20.20;99.90;;;;;;5018104;28;20638;-74
2022/05/20 04:27:29;;;;;;;21.20;19.20;;;20.20;99.90;;;;;;5052169;28;20606;-74
2022/05/20 04:29:56;;;;;;;21.03;18.90;;;20.30;99.90;;;;;;5051371;28;20615;-74
2022/05/20 04:32:21;;;;;;;21.87;19.73;;;20.30;99.90;;;;;;5034224;28;20563;-74
2022/05/20 04:34:48;;;;;;;18.73;16.87;;;20.30;99.90;;;;;;5052118;28;20621;-74
2022/05/20 04:37:15;;;;;;;21.20;18.60;;;20.30;99.90;;;;;;5051956;28;20685;-74
2022/05/20 04:39:41;;;;;;;22.60;20.20;;;20.40;99.90;;;;;;5051179;28;20559;-74
2022/05/20 04:47:40;;;;;;;21.97;19.20;;;20.40;99.90;;;;;;5051842;28;20625;-74
2022/05/20 04:50:08;;;;;;;23.83;21.30;;;20.50;99.90;;;;;;5050967;28;20626;-74
2022/05/20 04:52:33;;;;;;;22.77;20.47;;;20.50;99.90;;;;;;5051873;28;20611;-74
2022/05/20 04:54:59;;;;;;;17.97;16.20;;;20.50;99.90;;;;;;5051668;28;20574;-74
2022/05/20 04:57:37;;;;;;;21.10;18.90;;;20.60;99.90;;;;;;5051801;28;20185;-74
2022/05/20 05:00:03;;;;;;;22.10;18.83;;;20.60;99.90;;;;;;5050930;28;20591;-74
2022/05/20 05:02:28;;;;;;;21.53;19.33;;;20.70;99.90;;;;;;5051723;28;20607;-74
2022/05/20 05:04:55;;;;;;;20.57;18.57;;;20.70;99.90;;;;;;5051812;28;20566;-75
2022/05/20 05:07:21;;;;;;;21.27;19.17;;;20.80;99.90;;;;;;5051619;28;20181;-74
2022/05/20 05:09:47;;;;;;;19.97;17.70;;;20.90;99.90;;;;;;5050844;28;20679;-74
2022/05/20 05:12:14;;;;;;;19.27;17.37;;;20.90;99.90;;;;;;5051356;28;20574;-74
2022/05/20 05:14:47;;;;;;;18.83;17.07;;;21.00;99.90;;;;;;5051461;28;20578;-74
2022/05/20 05:17:15;;;;;;;20.80;18.77;;;21.10;99.90;;;;;;5051437;28;20596;-74
2022/05/20 05:19:44;;;;;;;19.93;18.00;;;21.10;99.90;;;;;;5032839;28;20571;-75
2022/05/20 05:22:10;;;;;;;20.57;18.53;;;21.20;99.90;;;;;;5050321;28;21041;-74
2022/05/20 05:24:37;;;;;;;21.50;19.43;;;21.30;99.90;;;;;;5050900;28;21178;-74
2022/05/20 05:27:04;;;;;;;18.63;16.90;;;21.30;99.90;;;;;;5051096;28;20604;-75
2022/05/20 05:29:30;;;;;;;20.00;18.10;;;21.40;99.90;;;;;;5050112;28;20618;-74
2022/05/20 05:31:57;;;;;;;19.10;17.40;;;21.50;99.90;;;;;;5050156;28;20615;-74
2022/05/20 05:34:23;;;;;;;20.23;18.40;;;21.70;99.90;;;;;;5051526;28;20319;-74
2022/05/20 05:36:48;;;;;;;22.13;19.93;;;21.70;99.90;;;;;;5051134;28;20623;-74
2022/05/20 05:39:14;;;;;;;20.60;18.60;;;21.80;99.90;;;;;;5050595;28;20492;-74
2022/05/20 05:41:40;;;;;;;20.30;18.30;;;21.90;99.90;;;;;;5050631;28;20172;-74
2022/05/20 05:44:06;;;;;;;21.13;17.10;;;22.00;99.90;;;;;;5033373;28;20169;-74
2022/05/20 05:46:32;;;;;;;19.97;18.00;;;22.00;99.90;;;;;;5051184;28;20596;-75
2022/05/20 05:48:58;;;;;;;20.70;18.50;;;22.20;99.90;;;;;;5051073;28;20567;-75
2022/05/20 05:51:25;;;;;;;20.00;17.80;;;22.40;99.90;;;;;;5050179;28;20192;-78
2022/05/20 05:53:52;;;;;;;21.43;19.23;;;22.80;99.90;;;;;;5051140;28;20555;-74
2022/05/20 05:56:18;;;;;;;19.90;18.00;;;23.30;99.90;;;;;;5051070;28;20598;-75
2022/05/20 05:58:43;;;;;;;21.03;17.77;;;23.90;99.90;;;;;;5050790;28;20571;-75
2022/05/20 06:01:10;;;;;;;18.23;16.60;;;24.40;99.90;;;;;;5050151;28;20568;-75
2022/05/20 06:03:36;;;;;;;18.50;16.73;;;24.90;99.90;;;;;;5050927;28;20917;-75
2022/05/20 06:06:02;;;;;;;18.40;16.37;;;25.30;99.90;;;;;;5050499;28;20690;-75
2022/05/20 06:08:28;;;;;;;19.53;17.43;;;25.70;99.90;;;;;;5050583;28;20662;-76
2022/05/20 06:10:54;;;;;;;17.87;16.27;;;26.00;99.90;;;;;;5032083;28;20615;-76
2022/05/20 06:13:24;;;;;;;18.13;16.33;;;26.20;99.90;;;;;;5050384;28;20637;-75
2022/05/20 06:15:51;;;;;;;15.90;14.40;;;26.50;99.90;;;;;;5050761;28;20804;-75
2022/05/20 06:18:17;;;;;;;19.77;18.07;;;26.90;99.90;;;;;;5050707;28;20564;-75
2022/05/20 06:20:43;;;;;;;16.47;14.87;;;27.20;99.90;;;;;;5047226;28;20599;-75
2022/05/20 06:23:09;;;;;;;16.60;15.10;;;27.60;99.90;;;;;;5050896;28;20260;-75
2022/05/20 06:25:35;;;;;;;16.83;15.23;;;28.10;99.90;;;;;;5052841;28;20724;-77
2022/05/20 06:28:09;;;;;;;18.83;17.17;;;28.30;99.90;;;;;;5054063;28;20212;-76
2022/05/20 06:30:35;;;;;;;17.80;16.17;;;28.20;99.90;;;;;;5035458;28;20625;-76
2022/05/20 06:33:01;;;;;;;17.60;16.13;;;28.10;99.90;;;;;;5036270;28;20648;-76
2022/05/20 06:40:56;;;;;;;18.13;16.43;;;27.30;99.90;;;;;;5053090;28;21103;-75
2022/05/20 06:43:22;;;;;;;17.10;15.50;;;27.30;99.90;;;;;;5053676;28;20570;-75
2022/05/20 06:45:52;;;;;;;17.27;15.60;;;27.30;99.90;;;;;;5036080;28;20198;-76
2022/05/20 06:48:18;;;;;;;15.93;14.43;;;27.20;99.90;;;;;;5053904;28;21114;-75
2022/05/20 06:50:44;;;;;;;17.67;15.97;;;27.20;99.90;;;;;;5035243;28;20633;-76
2022/05/20 06:53:10;;;;;;;15.67;14.27;;;27.00;99.90;;;;;;5052787;28;20180;-76
2022/05/20 06:55:36;;;;;;;17.10;15.50;;;26.80;99.90;;;;;;5053285;28;20971;-75
2022/05/20 06:58:02;;;;;;;21.67;19.50;;;26.70;99.90;;;;;;5053778;28;20192;-75
2022/05/20 07:00:28;;;;;;;19.93;18.03;;;26.40;99.90;;;;;;5052424;28;20195;-75
2022/05/20 07:02:54;;;;;;;17.27;15.67;;;26.00;99.90;;;;;;5053469;28;20583;-75
2022/05/20 07:05:20;;;;;;;17.50;15.80;;;25.70;99.90;;;;;;5053611;28;20662;-75
2022/05/20 07:07:46;;;;;;;18.23;16.63;;;25.40;99.90;;;;;;5053699;28;20919;-75
2022/05/20 07:10:13;;;;;;;25.67;23.30;;;25.10;99.90;;;;;;5034868;28;20617;-75
2022/05/20 07:12:39;;;;;;;22.07;19.97;;;24.80;99.90;;;;;;5053206;28;20559;-75
2022/05/20 07:15:05;;;;;;;23.93;21.53;;;24.50;99.90;;;;;;5036066;28;21195;-76
2022/05/20 07:17:31;;;;;;;24.73;22.20;;;24.20;99.90;;;;;;5053357;28;20746;-76
2022/05/20 07:19:57;;;;;;;25.30;23.00;;;24.00;99.90;;;;;;5052878;28;20602;-77
2022/05/20 07:22:24;;;;;;;25.03;22.47;;;23.90;99.90;;;;;;5053131;28;20674;-77
2022/05/20 07:24:50;;;;;;;24.13;21.83;;;23.80;99.90;;;;;;5052957;28;20555;-76
2022/05/20 07:27:16;;;;;;;24.70;22.33;;;23.70;99.90;;;;;;5052865;28;20595;-77
2022/05/20 07:29:43;;;;;;;25.57;23.23;;;23.70;99.90;;;;;;5052395;28;20575;-77
2022/05/20 07:32:09;;;;;;;26.20;23.70;;;23.70;99.90;;;;;;5053056;28;20574;-77
2022/05/20 07:34:35;;;;;;;29.83;27.03;;;23.80;99.90;;;;;;5045606;28;20564;-76
2022/05/20 07:37:01;;;;;;;28.37;25.57;;;23.90;99.90;;;;;;5032738;28;20596;-76
2022/05/20 07:39:27;;;;;;;29.10;26.30;;;23.90;99.90;;;;;;5042579;28;20619;-76
2022/05/20 07:41:53;;;;;;;32.83;29.83;;;23.90;99.90;;;;;;5052768;28;20967;-77
2022/05/20 07:44:21;;;;;;;32.37;29.37;;;23.90;99.90;;;;;;5052841;28;20185;-76
2022/05/20 07:46:47;;;;;;;28.23;25.47;;;23.70;99.90;;;;;;5051722;28;20295;-76
2022/05/20 07:49:12;;;;;;;25.97;23.27;;;23.70;99.90;;;;;;5034099;28;20674;-77
2022/05/20 07:51:42;;;;;;;23.73;21.40;;;23.60;99.90;;;;;;5048252;28;20273;-76
2022/05/20 07:54:15;;;;;;;26.37;23.50;;;23.70;99.90;;;;;;5052190;28;20177;-76
2022/05/20 07:56:55;;;;;;;23.70;21.40;;;23.70;99.90;;;;;;5031110;28;20623;-76
2022/05/20 07:59:44;;;;;;;26.27;23.70;;;23.70;99.90;;;;;;5031396;28;20561;-76
2022/05/20 08:02:12;;;;;;;22.70;20.57;;;23.60;99.90;;;;;;5031637;28;20631;-76
2022/05/20 08:04:53;;;;;;;24.73;22.20;;;23.60;99.90;;;;;;5031741;28;20584;-76
2022/05/20 08:07:20;;;;;;;23.47;21.13;;;23.60;99.90;;;;;;5031598;28;20607;-76
2022/05/20 08:09:47;;;;;;;22.83;18.77;;;23.50;99.90;;;;;;5030970;28;20589;-76
2022/05/20 08:12:13;;;;;;;19.57;17.73;;;23.50;99.90;;;;;;5032768;28;20671;-76
2022/05/20 08:14:39;;;;;;;21.47;19.47;;;23.50;99.90;;;;;;5032624;28;20560;-76
2022/05/20 08:17:06;;;;;;;23.90;21.60;;;23.60;99.90;;;;;;5032782;28;20589;-76
2022/05/20 08:19:32;;;;;;;23.70;21.20;;;23.70;99.90;;;;;;5032184;28;20173;-76
2022/05/20 08:21:58;;;;;;;20.63;18.63;;;23.80;99.90;;;;;;5032340;28;20627;-76
2022/05/20 08:24:25;;;;;;;20.70;18.40;;;23.90;99.90;;;;;;5032335;28;20576;-76
2022/05/20 08:26:51;;;;;;;20.40;18.40;;;24.10;99.90;;;;;;5015118;28;20726;-76
2022/05/20 08:29:17;;;;;;;19.73;17.87;;;24.30;99.90;;;;;;5031829;28;20603;-77
2022/05/20 08:31:44;;;;;;;19.07;17.17;;;24.50;99.90;;;;;;5032055;28;20636;-76
2022/05/20 08:34:11;;;;;;;17.43;15.77;;;24.80;99.90;;;;;;5014734;28;20572;-76
2022/05/20 08:36:38;;;;;;;17.53;15.80;;;25.10;99.90;;;;;;5032466;28;21166;-77
2022/05/20 08:39:04;;;;;;;18.63;16.87;;;25.40;99.90;;;;;;5032052;28;20561;-77
2022/05/20 08:41:38;;;;;;;18.33;16.43;;;25.60;99.90;;;;;;5031433;28;20569;-76
2022/05/20 08:44:06;;;;;;;17.47;15.67;;;25.80;99.90;;;;;;5032211;28;20932;-75
2022/05/20 08:46:32;;;;;;;20.10;18.03;;;26.00;99.90;;;;;;5031758;28;20601;-76
2022/05/20 08:48:58;;;;;;;18.67;16.67;;;26.20;99.90;;;;;;5030661;28;20626;-75
2022/05/20 08:51:29;;;;;;;16.73;14.93;;;26.50;99.90;;;;;;5013665;28;20603;-76
2022/05/20 08:53:55;;;;;;;15.30;13.70;;;27.00;99.90;;;;;;5031984;28;20573;-73
2022/05/20 08:56:24;;;;;;;14.57;13.17;;;27.50;99.90;;;;;;5031825;28;20631;-75
2022/05/20 08:58:57;;;;;;;13.00;11.70;;;28.00;99.90;;;;;;5032474;28;20605;-75
2022/05/20 09:01:52;;;;;;;12.47;11.30;;;28.30;99.90;;;;;;5031222;28;20586;-75
2022/05/20 09:04:22;;;;;;;12.50;11.47;;;28.60;99.90;;;;;;5018924;28;20683;-73
2022/05/20 09:07:01;;;;;;;11.13;9.10;;;29.10;99.90;;;;;;5031577;28;20700;-73
2022/05/20 09:09:47;;;;;;;13.23;11.47;;;29.30;99.90;;;;;;5031297;28;20577;-73
2022/05/20 09:12:36;;;;;;;11.47;10.43;;;29.30;99.90;;;;;;5031751;28;20572;-73
2022/05/20 09:18:07;;;;;;;11.97;9.70;;;29.40;99.90;;;;;;5031643;28;20564;-73
2022/05/20 09:20:33;;;;;;;13.77;11.07;;;29.60;99.90;;;;;;5030975;28;20568;-73
2022/05/20 09:23:02;;;;;;;11.00;9.80;;;29.80;99.90;;;;;;5031108;28;20565;-73
2022/05/20 09:25:32;;;;;;;11.13;10.03;;;29.90;99.90;;;;;;5031223;28;20197;-73
2022/05/20 09:28:38;;;;;;;14.00;9.80;;;29.80;99.90;;;;;;5031455;28;21106;-72
2022/05/20 09:31:30;;;;;;;7.83;7.13;;;29.90;99.90;;;;;;5027803;28;20679;-73
2022/05/20 09:34:14;;;;;;;8.37;7.57;;;30.00;99.90;;;;;;5031235;28;20576;-73
2022/05/20 09:36:56;;;;;;;9.40;8.40;;;30.10;99.90;;;;;;5034794;28;20698;-74
2022/05/20 09:39:36;;;;;;;8.60;7.80;;;30.40;99.90;;;;;;5050565;28;20578;-74
2022/05/20 09:42:15;;;;;;;7.87;7.17;;;30.30;99.90;;;;;;5051291;28;20614;-74
2022/05/20 09:44:44;;;;;;;7.37;6.70;;;30.40;99.90;;;;;;5051234;28;21115;-73
2022/05/20 09:47:26;;;;;;;8.20;6.97;;;30.60;99.90;;;;;;5033706;28;20603;-74
2022/05/20 09:49:54;;;;;;;6.60;6.03;;;31.00;99.90;;;;;;5049854;28;20571;-74
2022/05/20 09:52:31;;;;;;;6.37;5.77;;;31.50;99.90;;;;;;5051059;28;20608;-73
2022/05/20 09:55:04;;;;;;;8.10;6.93;;;31.90;99.90;;;;;;5033358;28;20574;-74
2022/05/20 09:57:43;;;;;;;6.47;5.87;;;32.20;99.90;;;;;;5051267;28;20602;-74
2022/05/20 10:00:32;;;;;;;6.90;6.00;;;32.70;99.90;;;;;;5054073;28;20616;-74
2022/05/20 10:03:09;;;;;;;4.60;4.20;;;33.10;98.00;;;;;;5037398;28;21130;-73
2022/05/20 10:06:04;;;;;;;5.63;4.80;;;33.70;99.90;;;;;;5054619;28;20587;-74
2022/05/20 10:08:43;;;;;;;6.80;6.20;;;34.20;99.90;;;;;;5055045;28;20555;-73
2022/05/20 10:11:30;;;;;;;5.33;4.83;;;34.80;98.70;;;;;;5036367;28;20625;-73
2022/05/20 10:14:14;;;;;;;5.03;4.33;;;35.20;97.80;;;;;;5055007;28;20693;-73
2022/05/20 10:17:19;;;;;;;5.53;5.07;;;35.70;96.10;;;;;;5055058;28;20598;-73
2022/05/20 10:19:59;;;;;;;5.50;5.00;;;35.70;93.80;;;;;;5052949;28;20575;-73
2022/05/20 10:22:59;;;;;;;4.57;3.53;;;35.90;90.60;;;;;;5036927;28;20567;-73
2022/05/20 10:25:31;;;;;;;4.13;3.73;;;36.00;91.20;;;;;;5036908;28;20595;-73
2022/05/20 10:28:01;;;;;;;3.63;3.13;;;36.10;85.10;;;;;;5036076;28;20981;-73
2022/05/20 10:33:29;;;;;;;4.03;3.73;;;36.10;81.70;;;;;;5054192;28;21146;-73
2022/05/20 10:36:21;;;;;;;5.03;4.20;;;36.00;83.10;;;;;;5057377;28;20601;-73
2022/05/20 10:38:55;;;;;;;4.20;3.80;;;35.80;77.30;;;;;;5056696;28;20623;-73
2022/05/20 10:41:40;;;;;;;4.60;4.10;;;35.70;81.50;;;;;;5073753;28;20562;-73
2022/05/20 10:50:26;;;;;;;3.70;3.40;;;35.30;76.70;;;;;;5073410;28;20660;-73
2022/05/20 10:53:39;;;;;;;4.17;3.70;;;35.10;79.20;;;;;;5074119;28;20559;-73
2022/05/20 10:56:24;;;;;;;3.57;3.27;;;34.60;79.10;;;;;;4992573;28;20663;-73
2022/05/20 10:59:06;;;;;;;3.70;3.40;;;34.10;78.70;;;;;;4992453;28;20582;-73
2022/05/20 11:01:38;;;;;;;3.70;3.30;;;33.70;79.60;;;;;;5054319;28;20628;-73
2022/05/20 11:04:26;;;;;;;4.87;3.77;;;33.20;79.80;;;;;;5073647;28;20569;-72
2022/05/20 11:07:11;;;;;;;5.67;4.70;;;33.00;81.80;;;;;;5073620;28;20592;-72
2022/05/20 11:09:47;;;;;;;3.67;3.37;;;32.70;81.60;;;;;;5054912;28;20571;-72
2022/05/20 11:12:36;;;;;;;5.00;3.53;;;32.30;83.30;;;;;;5073844;28;20589;-73
2022/05/20 11:15:17;;;;;;;5.00;4.53;;;32.10;84.70;;;;;;5073623;28;21111;-73
2022/05/20 11:17:53;;;;;;;6.27;4.10;;;31.80;85.30;;;;;;5073345;28;20912;-73
2022/05/20 11:20:34;;;;;;;4.53;3.97;;;31.70;86.60;;;;;;5054755;28;20615;-73
2022/05/20 11:23:14;;;;;;;6.57;4.03;;;31.50;87.60;;;;;;5055726;28;20561;-73
2022/05/20 11:25:48;;;;;;;6.17;4.37;;;31.30;87.90;;;;;;5073592;28;20615;-73
2022/05/20 11:28:33;;;;;;;5.20;4.40;;;31.20;88.50;;;;;;5073272;28;20597;-72
2022/05/20 11:31:16;;;;;;;4.57;4.17;;;31.00;89.00;;;;;;5072754;28;20625;-73
2022/05/20 11:33:50;;;;;;;5.63;5.13;;;30.80;89.50;;;;;;5073826;28;20563;-73
2022/05/20 11:36:33;;;;;;;4.73;4.20;;;30.50;90.10;;;;;;5073043;28;20590;-73
2022/05/20 11:39:26;;;;;;;4.83;4.17;;;30.20;90.40;;;;;;5073714;28;20563;-73
2022/05/20 11:41:53;;;;;;;4.30;3.90;;;30.00;91.00;;;;;;5072841;28;20686;-73
2022/05/20 11:44:45;;;;;;;6.37;4.27;;;29.80;91.60;;;;;;5073362;28;20575;-74
2022/05/20 11:47:25;;;;;;;6.37;4.67;;;29.70;92.90;;;;;;5073034;28;20979;-73
2022/05/20 11:50:12;;;;;;;5.17;4.77;;;29.70;93.40;;;;;;5072406;28;20570;-73
2022/05/20 11:52:49;;;;;;;6.13;4.73;;;29.70;94.20;;;;;;5073081;28;20567;-74
2022/05/20 11:55:23;;;;;;;4.73;4.20;;;29.70;94.70;;;;;;5073002;28;20577;-74
2022/05/20 11:58:02;;;;;;;5.73;4.67;;;29.80;94.90;;;;;;5073105;28;20600;-73
2022/05/20 12:00:29;;;;;;;4.27;3.87;;;29.80;95.00;;;;;;5072056;28;21441;-73
2022/05/20 12:03:15;;;;;;;5.70;4.50;;;29.80;94.90;;;;;;5054690;28;20582;-73
2022/05/20 12:05:44;;;;;;;5.53;4.37;;;29.80;95.10;;;;;;5072533;28;20608;-73
2022/05/20 12:08:39;;;;;;;5.17;4.70;;;29.80;95.20;;;;;;5054633;28;20621;-73
2022/05/20 12:11:37;;;;;;;7.83;5.23;;;29.70;95.10;;;;;;5071665;28;20664;-73
2022/05/20 12:14:19;;;;;;;5.50;4.97;;;29.40;95.10;;;;;;5072376;28;20616;-73
2022/05/20 12:17:27;;;;;;;5.17;4.70;;;29.30;95.50;;;;;;5072398;28;20590;-73
2022/05/20 12:25:55;;;;;;;5.73;4.47;;;28.90;96.60;;;;;;5063059;28;20614;-73
2022/05/20 12:28:21;;;;;;;5.23;4.73;;;28.70;96.90;;;;;;5057920;28;20599;-73
2022/05/20 12:31:08;;;;;;;5.73;5.13;;;28.60;97.20;;;;;;5054762;28;20626;-73
2022/05/20 12:33:49;;;;;;;9.07;6.07;;;28.30;99.30;;;;;;5052051;28;20534;-72
2022/05/20 12:36:15;;;;;;;11.00;7.00;;;28.10;99.90;;;;;;5038852;28;20700;-72
2022/05/20 12:38:42;;;;;;;9.00;8.03;;;27.40;99.90;;;;;;5051946;28;20606;-71
2022/05/20 12:41:20;;;;;;;7.37;6.00;;;26.60;99.90;;;;;;5051214;28;20173;-72
2022/05/20 12:43:55;;;;;;;7.30;5.73;;;25.80;99.90;;;;;;5050604;28;20597;-72
2022/05/20 12:46:41;;;;;;;6.63;6.00;;;25.20;99.90;;;;;;5051452;28;20594;-72
2022/05/20 12:49:08;;;;;;;8.53;7.60;;;24.70;99.90;;;;;;5051598;28;20801;-71
2022/05/20 12:51:47;;;;;;;9.43;8.07;;;24.30;99.90;;;;;;5051618;28;20710;-71
2022/05/20 12:54:18;;;;;;;8.33;7.63;;;24.00;99.90;;;;;;5051087;28;20630;-72
2022/05/20 12:56:43;;;;;;;8.20;7.43;;;23.70;99.90;;;;;;5051599;28;20606;-71
2022/05/20 12:59:15;;;;;;;9.97;8.77;;;23.50;99.90;;;;;;5050886;28;20650;-71
2022/05/20 13:01:48;;;;;;;11.83;10.10;;;23.30;99.90;;;;;;5050258;28;20185;-72
2022/05/20 13:04:16;;;;;;;10.73;9.03;;;23.30;99.90;;;;;;5033646;28;21022;-71
2022/05/20 13:06:47;;;;;;;8.73;7.80;;;23.20;99.90;;;;;;5033835;28;20587;-72
2022/05/20 13:09:21;;;;;;;8.27;7.47;;;23.20;99.90;;;;;;5049508;28;20588;-73
2022/05/20 13:11:51;;;;;;;11.80;9.17;;;23.30;99.90;;;;;;5050255;28;20620;-72
2022/05/20 13:14:19;;;;;;;9.53;8.60;;;23.30;99.90;;;;;;5032618;28;20950;-72
2022/05/20 13:16:47;;;;;;;8.33;7.20;;;23.30;99.90;;;;;;5051038;28;21000;-71
2022/05/20 13:19:15;;;;;;;8.10;6.30;;;23.50;99.90;;;;;;5053648;28;21413;-71
2022/05/20 13:21:50;;;;;;;8.30;7.60;;;23.70;99.90;;;;;;5047940;28;20588;-72
2022/05/20 13:24:19;;;;;;;7.17;6.57;;;23.90;99.90;;;;;;5033683;28;20687;-72
2022/05/20 13:26:45;;;;;;;7.30;6.63;;;24.20;99.90;;;;;;5049244;28;21249;-72
2022/05/20 13:29:20;;;;;;;5.93;5.43;;;24.40;99.90;;;;;;5046512;28;20603;-72
2022/05/20 13:31:46;;;;;;;5.77;5.10;;;24.60;99.90;;;;;;5047332;28;20618;-72
2022/05/20 13:34:13;;;;;;;8.30;7.70;;;24.90;99.90;;;;;;5065573;28;20593;-72
2022/05/20 13:36:49;;;;;;;7.77;6.50;;;25.10;99.90;;;;;;5071193;28;20905;-72